• Join FlightAware (Why Join?)
  • Login
  • US Flag 
02:16PM EDT


 

Airport Tracker/Info


-or-


 

Live Flight TrackerFlight Track Log ✈ EJA831 ✈ 19-Jun-2013 ✈ KTEB - KEWB

Flight Track Log - Related Links

Times and Time Zones

All times are in EDT time to prevent confusion due to time zone crossing. See the EJA831 flight status page for this flight to view local times or setup timezone preferences in your user account.

Time Position Orientation Groundspeed Altitude Reporting Facility
EDT Latitude Longitude Course Direction KTS MPH feet Rate Location/Type
04:51PM 40.9333 -74.0833 333° Northwest 201 231 3,000  Level New York TRACON
04:52PM 40.9667 -74.1333 311° West 215 247 3,600 1,500 Climbing New York TRACON
04:53PM 41.0167 -74.1833 323° Northwest 239 275 6,000 1,140 Climbing New York TRACON
04:54PM 41.1000 -74.1667 North 268 308 6,000 960 Level New York TRACON
04:55PM 41.1500 -74.1167 37° Northeast 276 318 8,000 1,500 Climbing New York TRACON
04:56PM 41.1833 -74.0333 62° Northeast 279 321 8,900 1,500 Climbing New York TRACON
04:57PM 41.2000 -73.9167 79° East 332 382 11,000 1,020 Climbing New York TRACON
04:58PM 41.2333 -73.8000 69° East 351 404 11,000 1,260 Level New York TRACON
04:59PM 41.2500 -73.6500 82° East 373 429 13,700 1,260 Climbing New York TRACON
05:01PM 41.2711 -73.3928 84° East 402 463 15,000 420 Climbing Boston Center
05:02PM 41.2783 -73.2550 86° East 381 438 15,000  Level Boston Center
05:03PM 41.2833 -73.1169 87° East 369 425 15,000  Level Boston Center
05:04PM 41.2883 -72.9925 87° East 364 419 15,000  Level Boston Center
05:05PM 41.2972 -72.8406 85° East 364 419 15,000 -480 Level Boston Center
05:06PM 41.3017 -72.7219 87° East 364 419 14,100 -1,020 Descending Boston Center
05:07PM 41.3083 -72.5756 86° East 364 419 13,000 -600 Descending Boston Center
05:08PM 41.3125 -72.4539 87° East 364 419 13,000  Level Boston Center
05:09PM 41.3208 -72.3019 86° East 364 419 13,000 -480 Level Boston Center
05:10PM 41.3228 -72.2356 88° East 372 428 12,300 -1,440 Descending Boston Center
05:10PM 41.3267 -72.1250 87° East 363 418 11,100 -900 Descending Boston Center
05:11PM 41.3306 -72.0531 86° East 354 407 11,000 -900 Descending Boston Center
05:12PM 41.3383 -71.9175 86° East 335 386 9,600 -1,500 Descending Boston Center
05:13PM 41.3458 -71.7711 86° East 293 337 7,500 -1,140 Descending Boston Center
05:14PM 41.3494 -71.6742 87° East 282 325 7,000 -300 Descending Boston Center
05:15PM 41.3550 -71.5633 86° East 279 321 7,000 -720 Level Boston Center
05:16PM 41.3583 -71.4639 87° East 280 322 5,500 -1,020 Descending Boston Center
05:17PM 41.3969 -71.3719 61° Northeast 267 307 5,000 -300 Descending Boston Center
05:18PM 41.4483 -71.2992 47° Northeast 265 305 5,000  Level Boston Center
05:19PM 41.4978 -71.2233 49° Northeast 266 306 5,000  Level Boston Center
05:20PM 41.5450 -71.1558 47° Northeast 265 305 5,000 -300 Level Boston Center
05:22PM 41.5878 -71.0772 54° Northeast 260 299 4,400 -1,320 Descending Boston Center
05:23PM 41.6136 -70.9797 70° East 243 280 2,300 -1,380 Descending Boston Center
05:24PM 41.6003 -70.9133 105° East 210 242 1,600 -720 Descending Boston Center
05:25PM 41.6439 -70.9122 North 160 184 1,000 -720 Descending Boston Center
05:26PM 41.6631 -70.9422 311° West 127 146 200 -840 Descending Boston Center